createdAt,value
2018-07-07T00:01:25.122Z,2.10
2018-07-07T00:05:28.451Z,1.60
2018-07-07T00:09:31.798Z,1.57
2018-07-07T00:13:35.143Z,1.63
2018-07-07T00:17:38.456Z,1.77
2018-07-07T00:21:41.871Z,1.77
2018-07-07T00:25:45.193Z,2.00
2018-07-07T00:29:48.867Z,1.40
2018-07-07T00:33:52.220Z,1.73
2018-07-07T00:37:55.561Z,1.70
2018-07-07T00:41:58.880Z,1.93
2018-07-07T00:46:02.199Z,1.70
2018-07-07T00:50:06.506Z,1.63
2018-07-07T00:54:09.839Z,1.70
2018-07-07T00:58:13.210Z,1.70
2018-07-07T01:02:20.887Z,1.50
2018-07-07T01:06:27.461Z,1.40
2018-07-07T01:10:30.807Z,2.13
2018-07-07T01:14:34.163Z,2.03
2018-07-07T01:18:37.496Z,2.03
2018-07-07T01:22:40.848Z,1.70
2018-07-07T01:26:44.224Z,1.07
2018-07-07T01:30:47.571Z,1.50
2018-07-07T01:34:50.890Z,1.97
2018-07-07T01:38:54.268Z,1.97
2018-07-07T01:42:57.615Z,1.90
2018-07-07T01:47:01.133Z,1.70
2018-07-07T01:51:04.516Z,2.20
2018-07-07T01:55:07.870Z,2.43
2018-07-07T01:59:11.186Z,1.87
2018-07-07T02:03:14.539Z,1.80
2018-07-07T02:07:17.880Z,2.13
2018-07-07T02:11:21.323Z,2.23
2018-07-07T02:15:24.671Z,2.37
2018-07-07T02:19:27.981Z,2.27
2018-07-07T02:23:31.339Z,2.40
2018-07-07T02:27:34.676Z,2.13
2018-07-07T02:31:38.012Z,2.43
2018-07-07T02:35:41.358Z,2.80
2018-07-07T02:39:45.145Z,2.53
2018-07-07T02:43:48.539Z,2.87
2018-07-07T02:47:51.925Z,2.70
2018-07-07T02:51:55.384Z,2.73
2018-07-07T02:55:59.580Z,2.60
2018-07-07T03:00:02.900Z,2.70
2018-07-07T03:04:06.247Z,2.67
2018-07-07T03:08:09.604Z,2.80
2018-07-07T03:12:12.962Z,3.03
2018-07-07T03:16:16.467Z,3.53
2018-07-07T03:20:20.019Z,3.60
2018-07-07T03:24:23.408Z,4.47
2018-07-07T03:28:26.748Z,3.57
2018-07-07T03:32:30.100Z,3.73
2018-07-07T03:36:33.435Z,3.63
2018-07-07T03:40:36.797Z,4.43
2018-07-07T03:44:40.198Z,3.90
2018-07-07T03:48:43.531Z,4.50
2018-07-07T03:52:46.900Z,3.77
2018-07-07T03:56:51.743Z,3.57
2018-07-07T04:00:56.930Z,3.47
2018-07-07T04:05:01.258Z,3.70
2018-07-07T04:09:05.512Z,3.50
2018-07-07T04:13:08.893Z,3.93
2018-07-07T04:17:12.243Z,3.83
2018-07-07T04:21:15.600Z,3.73
2018-07-07T04:25:18.927Z,3.90
2018-07-07T04:29:22.373Z,3.57
2018-07-07T04:33:26.891Z,3.60
2018-07-07T04:37:30.252Z,4.00
2018-07-07T04:41:33.747Z,4.12
2018-07-07T04:45:37.144Z,3.87
2018-07-07T04:49:40.543Z,4.30
2018-07-07T04:53:43.871Z,3.97
2018-07-07T04:57:47.238Z,3.70
2018-07-07T05:01:50.604Z,4.07
2018-07-07T05:05:53.675Z,3.80
2018-07-07T05:09:57.063Z,3.87
2018-07-07T05:14:00.452Z,4.97
2018-07-07T05:18:03.873Z,4.70
2018-07-07T05:22:07.265Z,4.50
2018-07-07T05:26:10.583Z,4.70
2018-07-07T05:30:13.928Z,5.13
2018-07-07T05:34:17.276Z,5.27
2018-07-07T05:38:20.740Z,5.33
2018-07-07T05:42:24.092Z,5.00
2018-07-07T05:46:27.403Z,5.47
2018-07-07T05:50:30.823Z,5.23
2018-07-07T05:54:35.007Z,4.73
2018-07-07T05:58:38.395Z,4.70
2018-07-07T06:02:41.790Z,5.03
2018-07-07T06:06:45.107Z,4.80
2018-07-07T06:10:48.460Z,4.30
2018-07-07T06:14:51.848Z,4.77
2018-07-07T06:18:55.223Z,5.73
2018-07-07T06:22:58.647Z,4.57
2018-07-07T06:27:02.068Z,4.33
2018-07-07T06:31:05.925Z,4.27
2018-07-07T06:35:09.727Z,3.53
2018-07-07T06:39:13.215Z,4.03
2018-07-07T06:43:16.569Z,4.00
2018-07-07T06:47:19.899Z,3.80
2018-07-07T06:51:23.238Z,3.30
2018-07-07T06:55:26.600Z,4.07
2018-07-07T06:59:29.999Z,4.47
2018-07-07T07:03:33.480Z,3.70
2018-07-07T07:07:36.736Z,3.20
2018-07-07T07:11:40.163Z,3.67
2018-07-07T07:15:43.526Z,3.47
2018-07-07T07:19:46.880Z,3.40
2018-07-07T07:23:50.222Z,2.90
2018-07-07T07:27:53.654Z,3.40
2018-07-07T07:31:57.006Z,3.23
2018-07-07T07:36:05.043Z,3.37
2018-07-07T07:40:08.375Z,3.07
2018-07-07T07:44:11.767Z,2.80
2018-07-07T07:48:15.087Z,2.87
2018-07-07T07:52:18.428Z,2.80
2018-07-07T07:56:21.767Z,3.17
2018-07-07T08:00:25.112Z,2.90
2018-07-07T08:04:28.464Z,3.70
2018-07-07T08:08:31.789Z,3.63
2018-07-07T08:12:35.144Z,2.90
2018-07-07T08:16:38.476Z,3.27
2018-07-07T08:20:41.831Z,3.53
2018-07-07T08:24:45.758Z,2.80
2018-07-07T08:28:49.116Z,3.10
2018-07-07T08:32:52.468Z,3.20
2018-07-07T08:36:55.840Z,3.00
2018-07-07T08:40:59.196Z,3.00
2018-07-07T08:45:02.538Z,3.07
2018-07-07T08:49:05.961Z,3.27
2018-07-07T08:53:09.298Z,3.50
2018-07-07T08:57:12.630Z,2.93
2018-07-07T09:01:15.979Z,3.50
2018-07-07T09:05:19.312Z,2.90
2018-07-07T09:09:22.632Z,3.13
2018-07-07T09:13:25.987Z,3.37
2018-07-07T09:17:29.326Z,2.90
2018-07-07T09:21:32.694Z,2.93
2018-07-07T09:25:36.044Z,3.13
2018-07-07T09:29:39.408Z,2.80
2018-07-07T09:33:42.748Z,3.20
2018-07-07T09:37:46.111Z,3.23
2018-07-07T09:41:49.455Z,2.90
2018-07-07T09:45:52.811Z,3.57
2018-07-07T09:49:56.154Z,2.57
2018-07-07T09:53:59.491Z,3.40
2018-07-07T09:58:02.842Z,3.27
2018-07-07T10:02:06.545Z,2.90
2018-07-07T10:06:09.974Z,2.90
2018-07-07T10:10:13.346Z,2.83
2018-07-07T10:14:16.708Z,3.43
2018-07-07T10:18:20.043Z,2.57
2018-07-07T10:22:23.403Z,2.80
2018-07-07T10:26:26.747Z,2.83
2018-07-07T10:30:30.109Z,3.10
2018-07-07T10:34:33.434Z,2.93
2018-07-07T10:38:36.762Z,2.50
2018-07-07T10:42:40.170Z,3.20
2018-07-07T10:46:43.583Z,2.40
2018-07-07T10:50:46.931Z,3.13
2018-07-07T10:54:50.283Z,2.80
2018-07-07T10:58:53.724Z,2.93
2018-07-07T11:02:57.102Z,2.70
2018-07-07T11:07:00.544Z,2.70
2018-07-07T11:11:03.914Z,2.77
2018-07-07T11:15:07.268Z,2.73
2018-07-07T11:19:10.604Z,2.80
2018-07-07T11:23:13.964Z,2.40
2018-07-07T11:27:17.292Z,2.50
2018-07-07T11:31:20.632Z,2.47
2018-07-07T11:35:23.956Z,2.03
2018-07-07T11:39:27.314Z,2.27
2018-07-07T11:43:30.690Z,2.23
2018-07-07T11:47:34.073Z,2.50
2018-07-07T11:51:37.516Z,2.37
2018-07-07T11:55:40.828Z,2.20
2018-07-07T11:59:44.160Z,2.70
2018-07-07T12:03:47.539Z,2.23
2018-07-07T12:08:00.713Z,2.50
2018-07-07T12:11:54.284Z,2.47
2018-07-07T12:15:57.615Z,2.23
2018-07-07T12:20:00.955Z,2.17
2018-07-07T12:24:04.368Z,2.57
2018-07-07T12:28:07.692Z,2.30
2018-07-07T12:32:11.037Z,2.00
2018-07-07T12:36:14.357Z,2.10
2018-07-07T12:40:17.740Z,2.12
2018-07-07T12:44:21.160Z,2.00
2018-07-07T12:48:24.529Z,2.13
2018-07-07T12:52:27.890Z,2.13
2018-07-07T12:56:31.519Z,2.52
2018-07-07T13:00:34.888Z,2.17
2018-07-07T13:04:38.238Z,1.87
2018-07-07T13:08:41.612Z,2.35
2018-07-07T13:12:45.392Z,2.20
2018-07-07T13:16:48.721Z,2.17
2018-07-07T13:20:52.080Z,2.17
2018-07-07T13:24:55.448Z,1.92
2018-07-07T13:28:58.783Z,2.65
2018-07-07T13:33:02.175Z,2.35
2018-07-07T13:37:05.984Z,2.27
2018-07-07T13:41:13.660Z,2.00
2018-07-07T13:45:17.031Z,2.12
2018-07-07T13:49:20.380Z,2.10
2018-07-07T13:53:23.754Z,1.72
2018-07-07T13:57:27.215Z,1.90
2018-07-07T14:01:30.589Z,2.00
2018-07-07T14:05:34.005Z,2.22
2018-07-07T14:09:37.344Z,2.15
2018-07-07T14:13:40.728Z,1.90
2018-07-07T14:17:44.074Z,2.00
2018-07-07T14:21:47.406Z,1.62
2018-07-07T14:25:50.749Z,2.20
2018-07-07T14:29:54.120Z,2.45
2018-07-07T14:33:57.507Z,2.15
2018-07-07T14:38:00.827Z,2.00
2018-07-07T14:42:16.992Z,1.90
2018-07-07T14:46:20.602Z,1.72
2018-07-07T14:50:24.280Z,2.20
2018-07-07T14:54:27.667Z,2.20
2018-07-07T14:58:31.011Z,2.00
2018-07-07T15:02:34.340Z,2.30
2018-07-07T15:06:37.680Z,2.00
2018-07-07T15:10:41.036Z,2.37
2018-07-07T15:14:44.388Z,2.42
2018-07-07T15:18:47.759Z,2.20
2018-07-07T15:22:51.117Z,2.12
2018-07-07T15:26:54.481Z,1.92
2018-07-07T15:30:58.034Z,2.05
2018-07-07T15:35:01.396Z,1.82
2018-07-07T15:39:05.595Z,2.10
2018-07-07T15:43:08.935Z,2.10
2018-07-07T15:47:12.280Z,2.12
2018-07-07T15:51:15.784Z,2.20
2018-07-07T15:55:19.119Z,1.92
2018-07-07T15:59:22.463Z,2.00
2018-07-07T16:03:25.829Z,1.87
2018-07-07T16:07:29.177Z,2.17
2018-07-07T16:11:32.604Z,1.90
2018-07-07T16:15:35.971Z,1.98
2018-07-07T16:19:39.320Z,2.02
2018-07-07T16:23:42.655Z,1.80
2018-07-07T16:27:45.979Z,1.98
2018-07-07T16:31:49.504Z,1.95
2018-07-07T16:35:52.888Z,2.08
2018-07-07T16:39:56.364Z,2.00
2018-07-07T16:43:59.876Z,1.92
2018-07-07T16:48:03.314Z,2.10
2018-07-07T16:52:06.881Z,2.40
2018-07-07T16:56:10.263Z,2.35
2018-07-07T17:00:13.664Z,2.10
2018-07-07T17:04:17.995Z,2.20
2018-07-07T17:08:21.371Z,1.90
2018-07-07T17:12:24.800Z,2.52
2018-07-07T17:16:35.709Z,2.20
2018-07-07T17:20:59.140Z,2.17
2018-07-07T17:25:03.972Z,2.02
2018-07-07T17:29:14.151Z,1.92
2018-07-07T17:33:17.560Z,2.30
2018-07-07T17:37:21.721Z,2.65
2018-07-07T17:41:25.104Z,2.42
2018-07-07T17:45:28.448Z,2.40
2018-07-07T17:49:31.821Z,2.70
2018-07-07T17:53:35.200Z,2.47
2018-07-07T17:57:38.755Z,2.70
2018-07-07T18:01:42.115Z,2.15
2018-07-07T18:05:45.472Z,2.07
2018-07-07T18:09:49.038Z,2.27
2018-07-07T18:13:52.419Z,2.40
2018-07-07T18:17:55.739Z,2.53
2018-07-07T18:21:59.090Z,2.40
2018-07-07T18:26:02.465Z,2.50
2018-07-07T18:30:05.790Z,2.23
2018-07-07T18:34:09.206Z,2.70
2018-07-07T18:38:12.652Z,2.30
2018-07-07T18:42:15.909Z,2.40
2018-07-07T18:46:19.261Z,2.53
2018-07-07T18:50:22.576Z,2.77
2018-07-07T18:54:25.914Z,2.00
2018-07-07T18:58:29.264Z,2.30
2018-07-07T19:02:32.631Z,2.83
2018-07-07T19:06:35.959Z,2.50
2018-07-07T19:10:39.269Z,2.60
2018-07-07T19:14:42.749Z,2.20
2018-07-07T19:18:46.109Z,2.00
2018-07-07T19:22:54.877Z,2.70
2018-07-07T19:26:59.503Z,2.33
2018-07-07T19:31:02.844Z,2.50
2018-07-07T19:35:11.447Z,2.20
2018-07-07T19:39:14.852Z,2.33
2018-07-07T19:43:18.231Z,2.33
2018-07-07T19:47:21.872Z,2.50
2018-07-07T19:51:25.349Z,2.30
2018-07-07T19:55:28.686Z,2.03
2018-07-07T19:59:32.206Z,2.27
2018-07-07T20:03:35.571Z,2.30
2018-07-07T20:07:39.319Z,2.60
2018-07-07T20:11:42.656Z,2.10
2018-07-07T20:15:56.109Z,2.37
2018-07-07T20:20:35.994Z,2.10
2018-07-07T20:24:40.405Z,1.90
2018-07-07T20:28:49.084Z,2.37
2018-07-07T20:32:52.663Z,2.53
2018-07-07T20:36:56.063Z,2.30
2018-07-07T20:40:59.452Z,2.20
2018-07-07T20:45:03.688Z,2.10
2018-07-07T20:49:07.067Z,1.60
2018-07-07T20:53:10.946Z,1.97
2018-07-07T20:57:14.297Z,2.07
2018-07-07T21:01:17.632Z,1.90
2018-07-07T21:05:20.994Z,2.10
2018-07-07T21:09:24.353Z,2.20
2018-07-07T21:13:27.694Z,2.20
2018-07-07T21:17:31.319Z,2.30
2018-07-07T21:21:34.663Z,2.10
2018-07-07T21:25:38.093Z,2.07
2018-07-07T21:29:41.683Z,2.40
2018-07-07T21:33:52.325Z,2.03
2018-07-07T21:37:55.656Z,2.70
2018-07-07T21:41:59.344Z,2.20
2018-07-07T21:46:03.332Z,2.47
2018-07-07T21:50:07.241Z,2.47
2018-07-07T21:54:11.585Z,2.07
2018-07-07T21:58:22.675Z,2.27
2018-07-07T22:02:31.411Z,2.50
2018-07-07T22:06:40.091Z,2.47
2018-07-07T22:10:43.589Z,2.07
2018-07-07T22:14:47.100Z,2.20
2018-07-07T22:18:50.415Z,2.67
2018-07-07T22:22:53.745Z,2.20
2018-07-07T22:26:59.106Z,3.00
2018-07-07T22:31:02.444Z,2.77
2018-07-07T22:35:11.075Z,2.70
2018-07-07T22:39:14.727Z,2.53
2018-07-07T22:43:18.077Z,2.53
2018-07-07T22:47:21.404Z,2.60
2018-07-07T22:51:24.768Z,2.67
2018-07-07T22:55:28.139Z,2.73
2018-07-07T22:59:31.493Z,2.97
2018-07-07T23:03:34.559Z,3.10
2018-07-07T23:07:37.928Z,2.70
2018-07-07T23:11:41.317Z,2.70
2018-07-07T23:15:44.780Z,2.40
2018-07-07T23:19:48.174Z,2.70
2018-07-07T23:23:51.624Z,3.10
2018-07-07T23:27:54.682Z,2.87
2018-07-07T23:31:58.031Z,3.20
2018-07-07T23:36:01.381Z,3.10
2018-07-07T23:40:04.730Z,2.70
2018-07-07T23:44:08.113Z,3.00
2018-07-07T23:48:14.455Z,3.00
2018-07-07T23:52:17.879Z,3.10
2018-07-07T23:56:21.232Z,3.00
